Weather forecast for Mishelevka (Мишелевка)

Russia, 412 m
N52.890, E103.197


Sounding

Red line — air temperature ˚C.
Blue line — thermal bubble temperature ˚C.
Green line — dew point temperature ˚C.
Wind speed is in meters per second.

Table forecast

GFS 0.25˚ model

temp. wind gust humid. clouds prec. press. hpbl
Sat21 00:00 15 291.0 wnw 6 12 89 64 0.0 1001 575
03:00 15 300.0 wnw 7 13 89 73 0.1 1001 717
06:00 14 305.0 nw 7 13 93 99 0.6 1002 774
09:00 14 298.0 wnw 7 13 93 99 1.1 1003 781
12:00 14 309.0 nw 8 14 93 100 2.0 1004 834
15:00 16 309.0 nw 6 11 92 100 5.4 1005 745
18:00 19 331.0 nnw 6 9 80 100 1.2 1007 1102
21:00 17 334.0 nnw 2 6 86 100 1.3 1008 236
 
Sun22 00:00 13 344.0 nnw 2 3 92 100 0.0 1010 39
03:00 12 312.0 nw 2 2 93 73 0.0 1011 22
06:00 11 333.0 nnw 1 1 93 0 0.0 1011 22
09:00 15 106.0 ese 1 2 84 1 0.0 1011 218
12:00 19 100.0 e 2 2 63 25 0.0 1010 785
15:00 22 91.0 e 3 4 53 19 0.0 1008 1121
18:00 23 93.0 e 3 4 52 1 0.0 1007 1081
21:00 20 84.0 e 2 3 68 47 0.0 1007 35
 
Mon23 00:00 16 74.0 ene 3 4 72 89 0.0 1008 45
03:00 13 117.0 ese 2 3 82 80 0.0 1007 23
06:00 12 109.0 ese 3 6 84 62 0.0 1007 116
09:00 15 93.0 e 2 3 72 75 0.0 1007 267
12:00 21 155.0 sse 1 1 60 67 0.0 1006 672
15:00 24 53.0 ne 1 1 54 33 0.0 1005 950
18:00 25 356.0 n 3 3 57 0 0.0 1004 1093
21:00 22 343.0 nnw 2 3 73 3 0.0 1006 54
 
Tue24 00:00 17 299.0 wnw 2 2 78 84 0.0 1007 23
03:00 15 294.0 wnw 1 1 87 88 0.0 1007 23
06:00 14 199.0 ssw 1 1 89 41 0.0 1007 23
09:00 18 133.0 se 2 2 82 21 0.0 1006 220
12:00 23 141.0 se 5 7 68 0 0.0 1003 742
15:00 27 134.0 se 5 7 56 0 0.0 1000 1353
18:00 28 124.0 se 5 7 51 0 0.0 999 1060
21:00 24 126.0 se 4 9 63 0 0.0 999 194
 
Wed25 00:00 17 121.0 ese 3 7 77 42 0.5 1000 121
03:00 14 109.0 ese 2 3 80 56 0.5 1000 34
06:00 13 108.0 ese 2 2 81 72 0.0 999 23
09:00 16 287.0 wnw 1 0 79 85 2.3 1000 126
12:00 19 333.0 nnw 4 6 82 100 2.5 1001 368
15:00 24 331.0 nnw 6 8 72 100 2.5 1002 877
18:00 22 338.0 nnw 7 10 71 100 0.0 1004 841
21:00 19 310.0 nw 3 7 77 100 0.0 1006 186
 

0.012 s